sensor_id;sensor_type;location;lat;lon;timestamp;P1;durP1;ratioP1;P2;durP2;ratioP2
43676;SDS011;29275;48.800;18.102;2023-06-14T00:01:01;4.57;;;2.38;;
43676;SDS011;29275;48.800;18.102;2023-06-14T00:04:05;3.83;;;1.83;;
43676;SDS011;29275;48.800;18.102;2023-06-14T00:07:08;4.07;;;1.95;;
43676;SDS011;29275;48.800;18.102;2023-06-14T00:10:13;4.63;;;1.98;;
43676;SDS011;29275;48.800;18.102;2023-06-14T00:13:17;3.97;;;1.90;;
43676;SDS011;29275;48.800;18.102;2023-06-14T00:16:20;2.97;;;2.08;;
43676;SDS011;29275;48.800;18.102;2023-06-14T00:19:24;3.72;;;1.70;;
43676;SDS011;29275;48.800;18.102;2023-06-14T00:22:28;3.45;;;2.13;;
43676;SDS011;29275;48.800;18.102;2023-06-14T00:25:31;3.10;;;2.17;;
43676;SDS011;29275;48.800;18.102;2023-06-14T00:28:33;4.38;;;2.45;;
43676;SDS011;29275;48.800;18.102;2023-06-14T00:31:36;3.35;;;2.20;;
43676;SDS011;29275;48.800;18.102;2023-06-14T00:34:39;3.10;;;2.00;;
43676;SDS011;29275;48.800;18.102;2023-06-14T00:37:42;4.15;;;2.30;;
43676;SDS011;29275;48.800;18.102;2023-06-14T00:40:46;3.00;;;1.90;;
43676;SDS011;29275;48.800;18.102;2023-06-14T00:43:49;6.18;;;2.42;;
43676;SDS011;29275;48.800;18.102;2023-06-14T00:46:53;3.13;;;2.05;;
43676;SDS011;29275;48.800;18.102;2023-06-14T00:49:57;3.53;;;1.95;;
43676;SDS011;29275;48.800;18.102;2023-06-14T00:53:01;5.25;;;2.40;;
43676;SDS011;29275;48.800;18.102;2023-06-14T00:56:04;3.00;;;2.05;;
43676;SDS011;29275;48.800;18.102;2023-06-14T00:59:06;3.70;;;1.88;;
43676;SDS011;29275;48.800;18.102;2023-06-14T01:02:10;3.95;;;2.60;;
43676;SDS011;29275;48.800;18.102;2023-06-14T01:05:14;3.50;;;2.05;;
43676;SDS011;29275;48.800;18.102;2023-06-14T01:08:41;2.95;;;1.80;;
43676;SDS011;29275;48.800;18.102;2023-06-14T01:15:30;3.78;;;2.60;;
43676;SDS011;29275;48.800;18.102;2023-06-14T01:18:33;7.05;;;2.75;;
43676;SDS011;29275;48.800;18.102;2023-06-14T01:21:37;3.30;;;2.13;;
43676;SDS011;29275;48.800;18.102;2023-06-14T01:27:48;5.85;;;2.25;;
43676;SDS011;29275;48.800;18.102;2023-06-14T01:30:53;4.00;;;2.60;;
43676;SDS011;29275;48.800;18.102;2023-06-14T01:33:57;7.65;;;2.60;;
43676;SDS011;29275;48.800;18.102;2023-06-14T01:37:00;4.38;;;2.78;;
43676;SDS011;29275;48.800;18.102;2023-06-14T01:40:04;3.60;;;2.20;;
43676;SDS011;29275;48.800;18.102;2023-06-14T01:43:10;5.75;;;3.20;;
43676;SDS011;29275;48.800;18.102;2023-06-14T01:49:41;4.15;;;3.00;;
43676;SDS011;29275;48.800;18.102;2023-06-14T01:52:44;3.30;;;2.50;;
43676;SDS011;29275;48.800;18.102;2023-06-14T01:55:47;3.30;;;2.35;;
43676;SDS011;29275;48.800;18.102;2023-06-14T01:58:51;3.92;;;2.60;;
43676;SDS011;29275;48.800;18.102;2023-06-14T02:01:54;5.32;;;2.67;;
43676;SDS011;29275;48.800;18.102;2023-06-14T02:04:57;5.25;;;2.65;;
43676;SDS011;29275;48.800;18.102;2023-06-14T02:08:00;4.82;;;2.50;;
43676;SDS011;29275;48.800;18.102;2023-06-14T02:11:03;3.65;;;2.33;;
43676;SDS011;29275;48.800;18.102;2023-06-14T02:14:06;6.70;;;2.97;;
43676;SDS011;29275;48.800;18.102;2023-06-14T02:17:09;3.67;;;2.60;;
43676;SDS011;29275;48.800;18.102;2023-06-14T02:20:13;5.70;;;2.60;;
43676;SDS011;29275;48.800;18.102;2023-06-14T02:23:16;3.45;;;2.63;;
43676;SDS011;29275;48.800;18.102;2023-06-14T02:26:19;5.60;;;3.15;;
43676;SDS011;29275;48.800;18.102;2023-06-14T02:29:21;4.30;;;2.75;;
43676;SDS011;29275;48.800;18.102;2023-06-14T02:32:24;4.72;;;3.13;;
43676;SDS011;29275;48.800;18.102;2023-06-14T02:35:29;4.32;;;2.60;;
43676;SDS011;29275;48.800;18.102;2023-06-14T02:38:32;6.30;;;2.58;;
43676;SDS011;29275;48.800;18.102;2023-06-14T02:41:35;6.07;;;3.20;;
43676;SDS011;29275;48.800;18.102;2023-06-14T02:44:39;4.47;;;2.85;;
43676;SDS011;29275;48.800;18.102;2023-06-14T02:47:42;5.38;;;2.92;;
43676;SDS011;29275;48.800;18.102;2023-06-14T02:50:47;6.63;;;2.53;;
43676;SDS011;29275;48.800;18.102;2023-06-14T02:53:50;7.65;;;2.90;;
43676;SDS011;29275;48.800;18.102;2023-06-14T02:56:53;5.30;;;2.65;;
43676;SDS011;29275;48.800;18.102;2023-06-14T02:59:57;3.08;;;2.03;;
43676;SDS011;29275;48.800;18.102;2023-06-14T03:03:00;2.90;;;2.42;;
43676;SDS011;29275;48.800;18.102;2023-06-14T03:06:04;4.22;;;2.53;;
43676;SDS011;29275;48.800;18.102;2023-06-14T03:09:11;3.60;;;2.63;;
43676;SDS011;29275;48.800;18.102;2023-06-14T03:12:15;8.18;;;2.47;;
43676;SDS011;29275;48.800;18.102;2023-06-14T03:15:18;8.23;;;2.50;;
43676;SDS011;29275;48.800;18.102;2023-06-14T03:18:23;4.00;;;2.45;;
43676;SDS011;29275;48.800;18.102;2023-06-14T03:21:30;4.78;;;2.45;;
43676;SDS011;29275;48.800;18.102;2023-06-14T03:24:37;4.10;;;2.33;;
43676;SDS011;29275;48.800;18.102;2023-06-14T03:27:45;4.35;;;2.60;;
43676;SDS011;29275;48.800;18.102;2023-06-14T03:30:48;4.95;;;2.67;;
43676;SDS011;29275;48.800;18.102;2023-06-14T03:33:52;9.05;;;2.33;;
43676;SDS011;29275;48.800;18.102;2023-06-14T03:36:55;3.47;;;2.63;;
43676;SDS011;29275;48.800;18.102;2023-06-14T03:39:58;2.92;;;2.35;;
43676;SDS011;29275;48.800;18.102;2023-06-14T03:43:01;5.40;;;2.28;;
43676;SDS011;29275;48.800;18.102;2023-06-14T03:46:04;9.73;;;2.38;;
43676;SDS011;29275;48.800;18.102;2023-06-14T03:49:09;4.97;;;2.65;;
43676;SDS011;29275;48.800;18.102;2023-06-14T03:52:13;4.20;;;2.15;;
43676;SDS011;29275;48.800;18.102;2023-06-14T03:55:18;4.82;;;2.63;;
43676;SDS011;29275;48.800;18.102;2023-06-14T03:58:24;5.75;;;1.98;;
43676;SDS011;29275;48.800;18.102;2023-06-14T04:01:27;4.45;;;2.10;;
43676;SDS011;29275;48.800;18.102;2023-06-14T04:07:39;4.65;;;2.33;;
43676;SDS011;29275;48.800;18.102;2023-06-14T04:10:47;3.60;;;2.05;;
43676;SDS011;29275;48.800;18.102;2023-06-14T04:13:50;3.80;;;1.88;;
43676;SDS011;29275;48.800;18.102;2023-06-14T04:16:56;3.45;;;2.00;;
43676;SDS011;29275;48.800;18.102;2023-06-14T04:19:59;4.90;;;2.28;;
43676;SDS011;29275;48.800;18.102;2023-06-14T04:23:12;2.67;;;2.13;;
43676;SDS011;29275;48.800;18.102;2023-06-14T04:26:16;3.55;;;2.10;;
43676;SDS011;29275;48.800;18.102;2023-06-14T04:29:20;4.85;;;2.53;;
43676;SDS011;29275;48.800;18.102;2023-06-14T04:32:33;5.18;;;2.20;;
43676;SDS011;29275;48.800;18.102;2023-06-14T04:35:42;2.80;;;2.10;;
43676;SDS011;29275;48.800;18.102;2023-06-14T04:38:51;4.15;;;2.10;;
43676;SDS011;29275;48.800;18.102;2023-06-14T04:41:59;5.40;;;2.00;;
43676;SDS011;29275;48.800;18.102;2023-06-14T04:45:03;3.75;;;2.00;;
43676;SDS011;29275;48.800;18.102;2023-06-14T04:48:07;3.72;;;1.88;;
43676;SDS011;29275;48.800;18.102;2023-06-14T04:51:10;5.60;;;2.22;;
43676;SDS011;29275;48.800;18.102;2023-06-14T04:54:13;5.05;;;2.65;;
43676;SDS011;29275;48.800;18.102;2023-06-14T04:57:17;4.13;;;2.28;;
43676;SDS011;29275;48.800;18.102;2023-06-14T05:00:23;2.73;;;2.30;;
43676;SDS011;29275;48.800;18.102;2023-06-14T05:03:26;3.47;;;2.35;;
43676;SDS011;29275;48.800;18.102;2023-06-14T05:06:30;5.00;;;2.22;;
43676;SDS011;29275;48.800;18.102;2023-06-14T05:09:33;6.82;;;2.42;;
43676;SDS011;29275;48.800;18.102;2023-06-14T05:12:36;2.65;;;1.85;;
43676;SDS011;29275;48.800;18.102;2023-06-14T05:15:41;3.83;;;1.95;;
43676;SDS011;29275;48.800;18.102;2023-06-14T05:18:44;5.05;;;2.15;;
43676;SDS011;29275;48.800;18.102;2023-06-14T05:21:48;3.90;;;2.72;;
43676;SDS011;29275;48.800;18.102;2023-06-14T05:24:51;4.22;;;2.22;;
43676;SDS011;29275;48.800;18.102;2023-06-14T05:27:54;3.50;;;1.92;;
43676;SDS011;29275;48.800;18.102;2023-06-14T05:30:57;2.58;;;1.90;;
43676;SDS011;29275;48.800;18.102;2023-06-14T05:34:00;3.72;;;2.38;;
43676;SDS011;29275;48.800;18.102;2023-06-14T05:37:03;4.95;;;2.25;;
43676;SDS011;29275;48.800;18.102;2023-06-14T05:40:06;3.72;;;2.13;;
43676;SDS011;29275;48.800;18.102;2023-06-14T05:43:11;3.92;;;2.20;;
43676;SDS011;29275;48.800;18.102;2023-06-14T05:46:14;8.30;;;2.00;;
43676;SDS011;29275;48.800;18.102;2023-06-14T05:49:17;4.90;;;2.97;;
43676;SDS011;29275;48.800;18.102;2023-06-14T05:52:20;3.20;;;1.65;;
43676;SDS011;29275;48.800;18.102;2023-06-14T05:55:23;8.77;;;1.83;;
43676;SDS011;29275;48.800;18.102;2023-06-14T05:58:26;3.85;;;2.20;;
43676;SDS011;29275;48.800;18.102;2023-06-14T06:01:29;5.35;;;2.45;;
43676;SDS011;29275;48.800;18.102;2023-06-14T06:04:33;7.93;;;1.80;;
43676;SDS011;29275;48.800;18.102;2023-06-14T06:07:36;2.38;;;1.77;;
43676;SDS011;29275;48.800;18.102;2023-06-14T06:10:40;2.40;;;1.80;;
43676;SDS011;29275;48.800;18.102;2023-06-14T06:13:42;9.48;;;2.70;;
43676;SDS011;29275;48.800;18.102;2023-06-14T06:16:45;4.60;;;2.50;;
43676;SDS011;29275;48.800;18.102;2023-06-14T06:19:48;4.50;;;2.10;;
43676;SDS011;29275;48.800;18.102;2023-06-14T06:22:51;5.40;;;2.17;;
43676;SDS011;29275;48.800;18.102;2023-06-14T06:25:54;5.30;;;2.47;;
43676;SDS011;29275;48.800;18.102;2023-06-14T06:28:57;5.82;;;2.10;;
43676;SDS011;29275;48.800;18.102;2023-06-14T06:32:01;4.80;;;1.80;;
43676;SDS011;29275;48.800;18.102;2023-06-14T06:35:04;4.85;;;1.83;;
43676;SDS011;29275;48.800;18.102;2023-06-14T06:38:09;2.65;;;2.00;;
43676;SDS011;29275;48.800;18.102;2023-06-14T06:41:12;4.28;;;2.28;;
43676;SDS011;29275;48.800;18.102;2023-06-14T06:44:15;3.40;;;1.83;;
43676;SDS011;29275;48.800;18.102;2023-06-14T06:47:23;5.18;;;2.00;;
43676;SDS011;29275;48.800;18.102;2023-06-14T06:50:27;4.18;;;2.40;;
43676;SDS011;29275;48.800;18.102;2023-06-14T06:53:31;3.20;;;1.90;;
43676;SDS011;29275;48.800;18.102;2023-06-14T06:56:43;7.78;;;1.90;;
43676;SDS011;29275;48.800;18.102;2023-06-14T06:59:47;4.38;;;1.90;;
43676;SDS011;29275;48.800;18.102;2023-06-14T07:02:50;2.95;;;2.15;;
43676;SDS011;29275;48.800;18.102;2023-06-14T07:05:53;10.82;;;2.15;;
43676;SDS011;29275;48.800;18.102;2023-06-14T07:08:57;1.92;;;1.60;;
43676;SDS011;29275;48.800;18.102;2023-06-14T07:12:04;6.40;;;1.83;;
43676;SDS011;29275;48.800;18.102;2023-06-14T07:15:07;2.42;;;1.05;;
43676;SDS011;29275;48.800;18.102;2023-06-14T07:18:11;3.33;;;1.77;;
43676;SDS011;29275;48.800;18.102;2023-06-14T07:21:17;4.13;;;1.73;;
43676;SDS011;29275;48.800;18.102;2023-06-14T07:24:20;1.80;;;1.25;;
43676;SDS011;29275;48.800;18.102;2023-06-14T07:27:24;3.67;;;1.73;;
43676;SDS011;29275;48.800;18.102;2023-06-14T07:30:27;3.47;;;1.50;;
43676;SDS011;29275;48.800;18.102;2023-06-14T07:33:32;7.13;;;1.77;;
43676;SDS011;29275;48.800;18.102;2023-06-14T07:36:35;7.80;;;1.48;;
43676;SDS011;29275;48.800;18.102;2023-06-14T07:39:39;3.10;;;1.92;;
43676;SDS011;29275;48.800;18.102;2023-06-14T07:42:41;2.58;;;1.35;;
43676;SDS011;29275;48.800;18.102;2023-06-14T07:45:44;3.10;;;1.67;;
43676;SDS011;29275;48.800;18.102;2023-06-14T07:49:06;2.47;;;1.38;;
43676;SDS011;29275;48.800;18.102;2023-06-14T07:52:10;3.17;;;1.75;;
43676;SDS011;29275;48.800;18.102;2023-06-14T07:55:13;3.28;;;1.70;;
43676;SDS011;29275;48.800;18.102;2023-06-14T07:58:18;3.55;;;1.90;;
43676;SDS011;29275;48.800;18.102;2023-06-14T08:01:21;7.15;;;1.83;;
43676;SDS011;29275;48.800;18.102;2023-06-14T08:04:26;39.75;;;36.67;;
43676;SDS011;29275;48.800;18.102;2023-06-14T08:07:29;19.77;;;18.30;;
43676;SDS011;29275;48.800;18.102;2023-06-14T08:10:32;50.13;;;46.05;;
43676;SDS011;29275;48.800;18.102;2023-06-14T08:13:35;27.30;;;25.17;;
43676;SDS011;29275;48.800;18.102;2023-06-14T08:16:38;24.98;;;23.02;;
43676;SDS011;29275;48.800;18.102;2023-06-14T08:19:41;32.05;;;29.45;;
43676;SDS011;29275;48.800;18.102;2023-06-14T08:22:44;27.08;;;25.25;;
43676;SDS011;29275;48.800;18.102;2023-06-14T08:25:49;32.17;;;29.70;;
43676;SDS011;29275;48.800;18.102;2023-06-14T08:28:52;75.80;;;69.53;;
43676;SDS011;29275;48.800;18.102;2023-06-14T08:31:55;35.90;;;33.20;;
43676;SDS011;29275;48.800;18.102;2023-06-14T08:34:58;40.95;;;37.67;;
43676;SDS011;29275;48.800;18.102;2023-06-14T08:38:20;46.03;;;42.13;;
43676;SDS011;29275;48.800;18.102;2023-06-14T08:41:23;43.10;;;39.65;;
43676;SDS011;29275;48.800;18.102;2023-06-14T08:44:30;28.48;;;26.33;;
43676;SDS011;29275;48.800;18.102;2023-06-14T08:47:32;57.45;;;53.17;;
43676;SDS011;29275;48.800;18.102;2023-06-14T08:50:43;37.58;;;35.30;;
43676;SDS011;29275;48.800;18.102;2023-06-14T08:53:46;65.18;;;60.60;;
43676;SDS011;29275;48.800;18.102;2023-06-14T08:56:59;35.42;;;33.13;;
43676;SDS011;29275;48.800;18.102;2023-06-14T09:00:03;101.05;;;92.68;;
43676;SDS011;29275;48.800;18.102;2023-06-14T09:03:15;54.72;;;51.13;;
43676;SDS011;29275;48.800;18.102;2023-06-14T09:06:18;88.63;;;81.15;;
43676;SDS011;29275;48.800;18.102;2023-06-14T09:09:22;52.08;;;48.58;;
43676;SDS011;29275;48.800;18.102;2023-06-14T09:12:31;76.82;;;70.35;;
43676;SDS011;29275;48.800;18.102;2023-06-14T09:15:34;112.50;;;103.82;;
43676;SDS011;29275;48.800;18.102;2023-06-14T09:18:38;53.25;;;49.95;;
43676;SDS011;29275;48.800;18.102;2023-06-14T09:21:42;36.35;;;34.00;;
43676;SDS011;29275;48.800;18.102;2023-06-14T09:24:45;122.43;;;114.60;;
43676;SDS011;29275;48.800;18.102;2023-06-14T09:27:47;109.40;;;101.18;;
43676;SDS011;29275;48.800;18.102;2023-06-14T09:30:50;125.97;;;117.15;;
43676;SDS011;29275;48.800;18.102;2023-06-14T09:33:54;112.05;;;104.53;;
43676;SDS011;29275;48.800;18.102;2023-06-14T09:36:59;108.68;;;101.85;;
43676;SDS011;29275;48.800;18.102;2023-06-14T09:40:03;164.90;;;152.98;;
43676;SDS011;29275;48.800;18.102;2023-06-14T09:43:06;168.48;;;157.63;;
43676;SDS011;29275;48.800;18.102;2023-06-14T09:49:15;78.93;;;74.18;;
43676;SDS011;29275;48.800;18.102;2023-06-14T09:52:19;345.70;;;319.23;;
43676;SDS011;29275;48.800;18.102;2023-06-14T09:55:22;396.50;;;364.77;;
43676;SDS011;29275;48.800;18.102;2023-06-14T09:58:26;345.40;;;317.33;;
43676;SDS011;29275;48.800;18.102;2023-06-14T10:01:31;400.75;;;372.80;;
43676;SDS011;29275;48.800;18.102;2023-06-14T10:04:34;387.38;;;360.80;;
43676;SDS011;29275;48.800;18.102;2023-06-14T10:07:55;395.20;;;370.23;;
43676;SDS011;29275;48.800;18.102;2023-06-14T10:11:02;564.08;;;513.75;;
43676;SDS011;29275;48.800;18.102;2023-06-14T10:14:05;371.88;;;347.17;;
43676;SDS011;29275;48.800;18.102;2023-06-14T10:17:10;536.03;;;492.23;;
43676;SDS011;29275;48.800;18.102;2023-06-14T10:20:26;386.55;;;357.48;;
43676;SDS011;29275;48.800;18.102;2023-06-14T10:23:41;367.73;;;338.00;;
43676;SDS011;29275;48.800;18.102;2023-06-14T10:26:53;543.58;;;501.98;;
43676;SDS011;29275;48.800;18.102;2023-06-14T10:30:04;347.08;;;321.08;;
43676;SDS011;29275;48.800;18.102;2023-06-14T10:33:10;412.60;;;382.50;;
43676;SDS011;29275;48.800;18.102;2023-06-14T10:36:25;314.83;;;292.73;;
43676;SDS011;29275;48.800;18.102;2023-06-14T10:39:30;445.20;;;406.00;;
43676;SDS011;29275;48.800;18.102;2023-06-14T10:42:34;482.63;;;448.00;;
43676;SDS011;29275;48.800;18.102;2023-06-14T10:45:37;511.45;;;470.88;;
43676;SDS011;29275;48.800;18.102;2023-06-14T10:49:39;358.83;;;335.27;;
43676;SDS011;29275;48.800;18.102;2023-06-14T10:52:44;445.48;;;407.60;;
43676;SDS011;29275;48.800;18.102;2023-06-14T10:55:48;547.17;;;498.17;;
43676;SDS011;29275;48.800;18.102;2023-06-14T10:58:51;741.75;;;674.78;;
43676;SDS011;29275;48.800;18.102;2023-06-14T11:05:26;569.17;;;524.03;;
43676;SDS011;29275;48.800;18.102;2023-06-14T11:11:43;631.63;;;581.35;;
43676;SDS011;29275;48.800;18.102;2023-06-14T11:14:47;711.47;;;646.05;;
43676;SDS011;29275;48.800;18.102;2023-06-14T11:17:53;801.55;;;702.35;;
43676;SDS011;29275;48.800;18.102;2023-06-14T11:20:56;768.25;;;691.60;;
43676;SDS011;29275;48.800;18.102;2023-06-14T11:23:59;620.78;;;566.13;;
43676;SDS011;29275;48.800;18.102;2023-06-14T11:27:03;724.95;;;655.65;;
43676;SDS011;29275;48.800;18.102;2023-06-14T11:30:07;771.83;;;696.25;;
43676;SDS011;29275;48.800;18.102;2023-06-14T11:33:10;756.20;;;680.30;;
43676;SDS011;29275;48.800;18.102;2023-06-14T11:36:15;710.63;;;645.85;;
43676;SDS011;29275;48.800;18.102;2023-06-14T11:39:23;754.30;;;688.58;;
43676;SDS011;29275;48.800;18.102;2023-06-14T11:42:27;714.90;;;650.05;;
43676;SDS011;29275;48.800;18.102;2023-06-14T11:45:31;810.20;;;731.55;;
43676;SDS011;29275;48.800;18.102;2023-06-14T11:48:41;771.90;;;701.78;;
43676;SDS011;29275;48.800;18.102;2023-06-14T11:51:45;838.47;;;755.88;;
43676;SDS011;29275;48.800;18.102;2023-06-14T11:54:48;725.03;;;662.88;;
43676;SDS011;29275;48.800;18.102;2023-06-14T11:57:53;640.95;;;589.38;;
43676;SDS011;29275;48.800;18.102;2023-06-14T12:00:57;845.65;;;755.65;;
43676;SDS011;29275;48.800;18.102;2023-06-14T12:04:00;758.67;;;695.85;;
43676;SDS011;29275;48.800;18.102;2023-06-14T12:07:13;661.63;;;605.20;;
43676;SDS011;29275;48.800;18.102;2023-06-14T12:10:18;725.85;;;655.35;;
43676;SDS011;29275;48.800;18.102;2023-06-14T12:13:21;758.35;;;691.50;;
43676;SDS011;29275;48.800;18.102;2023-06-14T12:16:29;803.55;;;723.97;;
43676;SDS011;29275;48.800;18.102;2023-06-14T12:19:46;808.67;;;729.40;;
43676;SDS011;29275;48.800;18.102;2023-06-14T12:22:51;793.43;;;720.23;;
43676;SDS011;29275;48.800;18.102;2023-06-14T12:25:55;770.60;;;705.05;;
43676;SDS011;29275;48.800;18.102;2023-06-14T12:29:04;888.28;;;803.33;;
43676;SDS011;29275;48.800;18.102;2023-06-14T12:32:08;869.20;;;783.38;;
43676;SDS011;29275;48.800;18.102;2023-06-14T12:35:11;930.05;;;838.38;;
43676;SDS011;29275;48.800;18.102;2023-06-14T12:38:15;946.25;;;845.05;;
43676;SDS011;29275;48.800;18.102;2023-06-14T12:41:19;1003.95;;;843.97;;
43676;SDS011;29275;48.800;18.102;2023-06-14T12:44:25;889.15;;;800.53;;
43676;SDS011;29275;48.800;18.102;2023-06-14T12:47:28;811.60;;;736.13;;
43676;SDS011;29275;48.800;18.102;2023-06-14T12:50:31;808.22;;;740.17;;
43676;SDS011;29275;48.800;18.102;2023-06-14T12:53:34;749.75;;;687.17;;
43676;SDS011;29275;48.800;18.102;2023-06-14T12:56:37;743.22;;;683.75;;
43676;SDS011;29275;48.800;18.102;2023-06-14T12:59:41;751.22;;;685.08;;
43676;SDS011;29275;48.800;18.102;2023-06-14T13:02:44;819.83;;;744.92;;
43676;SDS011;29275;48.800;18.102;2023-06-14T13:05:48;834.08;;;748.88;;
43676;SDS011;29275;48.800;18.102;2023-06-14T13:08:51;897.28;;;814.65;;
43676;SDS011;29275;48.800;18.102;2023-06-14T13:11:57;885.70;;;803.95;;
43676;SDS011;29275;48.800;18.102;2023-06-14T13:15:00;902.67;;;814.00;;
43676;SDS011;29275;48.800;18.102;2023-06-14T13:18:03;853.05;;;769.75;;
43676;SDS011;29275;48.800;18.102;2023-06-14T13:21:08;912.13;;;819.55;;
43676;SDS011;29275;48.800;18.102;2023-06-14T13:24:11;851.55;;;771.72;;
43676;SDS011;29275;48.800;18.102;2023-06-14T13:27:14;843.72;;;762.00;;
43676;SDS011;29275;48.800;18.102;2023-06-14T13:30:18;825.85;;;747.15;;
43676;SDS011;29275;48.800;18.102;2023-06-14T13:33:21;920.75;;;829.88;;
43676;SDS011;29275;48.800;18.102;2023-06-14T13:36:24;840.92;;;762.70;;
43676;SDS011;29275;48.800;18.102;2023-06-14T13:39:27;966.70;;;864.15;;
43676;SDS011;29275;48.800;18.102;2023-06-14T13:42:31;968.58;;;872.22;;
43676;SDS011;29275;48.800;18.102;2023-06-14T13:45:34;904.15;;;813.20;;
43676;SDS011;29275;48.800;18.102;2023-06-14T13:48:37;923.22;;;831.85;;
43676;SDS011;29275;48.800;18.102;2023-06-14T13:51:40;912.25;;;825.72;;
43676;SDS011;29275;48.800;18.102;2023-06-14T13:54:43;951.10;;;852.10;;
43676;SDS011;29275;48.800;18.102;2023-06-14T13:57:49;912.75;;;824.15;;
43676;SDS011;29275;48.800;18.102;2023-06-14T14:00:52;974.42;;;867.88;;
43676;SDS011;29275;48.800;18.102;2023-06-14T14:03:56;1006.88;;;895.70;;
43676;SDS011;29275;48.800;18.102;2023-06-14T14:07:02;975.10;;;870.72;;
43676;SDS011;29275;48.800;18.102;2023-06-14T14:10:06;979.10;;;871.20;;
43676;SDS011;29275;48.800;18.102;2023-06-14T14:13:09;987.33;;;875.60;;
43676;SDS011;29275;48.800;18.102;2023-06-14T14:16:12;1042.93;;;921.47;;
43676;SDS011;29275;48.800;18.102;2023-06-14T14:19:15;978.25;;;875.97;;
43676;SDS011;29275;48.800;18.102;2023-06-14T14:22:18;952.33;;;855.45;;
43676;SDS011;29275;48.800;18.102;2023-06-14T14:25:21;958.50;;;853.95;;
43676;SDS011;29275;48.800;18.102;2023-06-14T14:28:24;934.28;;;834.65;;
43676;SDS011;29275;48.800;18.102;2023-06-14T14:31:28;1047.30;;;903.28;;
43676;SDS011;29275;48.800;18.102;2023-06-14T14:34:31;995.55;;;883.72;;
43676;SDS011;29275;48.800;18.102;2023-06-14T14:37:34;894.75;;;805.53;;
43676;SDS011;29275;48.800;18.102;2023-06-14T14:40:37;924.50;;;833.35;;
43676;SDS011;29275;48.800;18.102;2023-06-14T14:43:41;893.92;;;809.58;;
43676;SDS011;29275;48.800;18.102;2023-06-14T14:46:44;895.67;;;801.10;;
43676;SDS011;29275;48.800;18.102;2023-06-14T14:49:47;869.08;;;789.55;;
43676;SDS011;29275;48.800;18.102;2023-06-14T14:52:50;875.50;;;791.80;;
43676;SDS011;29275;48.800;18.102;2023-06-14T14:55:53;1204.40;;;902.03;;
43676;SDS011;29275;48.800;18.102;2023-06-14T14:58:56;1035.53;;;848.30;;
43676;SDS011;29275;48.800;18.102;2023-06-14T15:02:02;1093.10;;;868.27;;
43676;SDS011;29275;48.800;18.102;2023-06-14T15:05:05;767.85;;;703.58;;
43676;SDS011;29275;48.800;18.102;2023-06-14T15:08:08;914.97;;;812.10;;
43676;SDS011;29275;48.800;18.102;2023-06-14T15:11:14;882.23;;;790.87;;
43676;SDS011;29275;48.800;18.102;2023-06-14T15:14:17;907.33;;;815.95;;
43676;SDS011;29275;48.800;18.102;2023-06-14T15:17:21;882.75;;;796.65;;
43676;SDS011;29275;48.800;18.102;2023-06-14T15:20:24;835.47;;;760.08;;
43676;SDS011;29275;48.800;18.102;2023-06-14T15:23:27;845.40;;;770.28;;
43676;SDS011;29275;48.800;18.102;2023-06-14T15:26:30;782.90;;;717.42;;
43676;SDS011;29275;48.800;18.102;2023-06-14T15:29:33;711.85;;;654.97;;
43676;SDS011;29275;48.800;18.102;2023-06-14T15:32:37;760.63;;;696.50;;
43676;SDS011;29275;48.800;18.102;2023-06-14T15:35:40;761.58;;;697.88;;
43676;SDS011;29275;48.800;18.102;2023-06-14T15:38:43;703.10;;;646.75;;
43676;SDS011;29275;48.800;18.102;2023-06-14T15:41:47;777.38;;;712.45;;
43676;SDS011;29275;48.800;18.102;2023-06-14T15:44:49;769.63;;;699.85;;
43676;SDS011;29275;48.800;18.102;2023-06-14T15:47:53;820.13;;;750.58;;
43676;SDS011;29275;48.800;18.102;2023-06-14T15:50:56;811.00;;;738.10;;
43676;SDS011;29275;48.800;18.102;2023-06-14T15:53:59;807.08;;;734.92;;
43676;SDS011;29275;48.800;18.102;2023-06-14T15:57:02;870.67;;;787.17;;
43676;SDS011;29275;48.800;18.102;2023-06-14T16:00:06;859.25;;;771.40;;
43676;SDS011;29275;48.800;18.102;2023-06-14T16:03:09;875.67;;;797.55;;
43676;SDS011;29275;48.800;18.102;2023-06-14T16:06:12;846.05;;;767.22;;
43676;SDS011;29275;48.800;18.102;2023-06-14T16:09:15;855.90;;;775.13;;
43676;SDS011;29275;48.800;18.102;2023-06-14T16:12:18;841.28;;;764.40;;
43676;SDS011;29275;48.800;18.102;2023-06-14T16:15:23;868.30;;;788.03;;
43676;SDS011;29275;48.800;18.102;2023-06-14T16:18:26;854.08;;;774.70;;
43676;SDS011;29275;48.800;18.102;2023-06-14T16:21:29;848.10;;;770.28;;
43676;SDS011;29275;48.800;18.102;2023-06-14T16:27:38;800.75;;;730.58;;
43676;SDS011;29275;48.800;18.102;2023-06-14T16:30:42;778.45;;;708.83;;
43676;SDS011;29275;48.800;18.102;2023-06-14T16:33:45;797.15;;;726.60;;
43676;SDS011;29275;48.800;18.102;2023-06-14T16:36:49;770.33;;;698.40;;
43676;SDS011;29275;48.800;18.102;2023-06-14T16:39:52;801.78;;;729.58;;
43676;SDS011;29275;48.800;18.102;2023-06-14T16:42:55;823.45;;;744.65;;
43676;SDS011;29275;48.800;18.102;2023-06-14T16:45:57;848.47;;;768.67;;
43676;SDS011;29275;48.800;18.102;2023-06-14T16:49:01;768.45;;;701.58;;
43676;SDS011;29275;48.800;18.102;2023-06-14T16:52:04;771.95;;;708.97;;
43676;SDS011;29275;48.800;18.102;2023-06-14T16:58:14;716.90;;;658.80;;
43676;SDS011;29275;48.800;18.102;2023-06-14T17:01:17;751.20;;;683.45;;
43676;SDS011;29275;48.800;18.102;2023-06-14T17:04:20;692.08;;;633.67;;
43676;SDS011;29275;48.800;18.102;2023-06-14T17:07:23;692.72;;;636.65;;
43676;SDS011;29275;48.800;18.102;2023-06-14T17:10:26;669.50;;;617.90;;
43676;SDS011;29275;48.800;18.102;2023-06-14T17:13:29;692.80;;;633.50;;
43676;SDS011;29275;48.800;18.102;2023-06-14T17:16:32;629.53;;;579.75;;
43676;SDS011;29275;48.800;18.102;2023-06-14T17:19:35;605.90;;;557.83;;
43676;SDS011;29275;48.800;18.102;2023-06-14T17:22:38;619.22;;;570.83;;
43676;SDS011;29275;48.800;18.102;2023-06-14T17:25:43;626.90;;;577.58;;
43676;SDS011;29275;48.800;18.102;2023-06-14T17:28:46;567.53;;;526.38;;
43676;SDS011;29275;48.800;18.102;2023-06-14T17:31:49;574.42;;;532.53;;
43676;SDS011;29275;48.800;18.102;2023-06-14T17:34:52;538.03;;;496.02;;
43676;SDS011;29275;48.800;18.102;2023-06-14T17:37:55;585.05;;;541.50;;
43676;SDS011;29275;48.800;18.102;2023-06-14T17:40:58;563.58;;;520.00;;
43676;SDS011;29275;48.800;18.102;2023-06-14T17:44:03;539.80;;;500.35;;
43676;SDS011;29275;48.800;18.102;2023-06-14T17:47:06;497.30;;;460.70;;
43676;SDS011;29275;48.800;18.102;2023-06-14T17:50:10;483.75;;;448.67;;
43676;SDS011;29275;48.800;18.102;2023-06-14T17:53:13;413.85;;;384.92;;
43676;SDS011;29275;48.800;18.102;2023-06-14T17:56:16;364.10;;;339.77;;
43676;SDS011;29275;48.800;18.102;2023-06-14T17:59:20;364.92;;;341.08;;
43676;SDS011;29275;48.800;18.102;2023-06-14T18:02:23;292.65;;;273.33;;
43676;SDS011;29275;48.800;18.102;2023-06-14T18:05:26;267.88;;;250.55;;
43676;SDS011;29275;48.800;18.102;2023-06-14T18:08:29;227.32;;;213.27;;
43676;SDS011;29275;48.800;18.102;2023-06-14T18:11:33;204.55;;;192.00;;